createdAt,value
2018-12-12T00:00:18.432Z,1000.98
2018-12-12T00:01:18.446Z,1000.96
2018-12-12T00:02:18.383Z,1000.97
2018-12-12T00:03:18.365Z,1000.96
2018-12-12T00:04:18.332Z,1000.93
2018-12-12T00:05:18.304Z,1000.97
2018-12-12T00:06:18.285Z,1000.96
2018-12-12T00:07:18.275Z,1000.97
2018-12-12T00:08:18.233Z,1000.98
2018-12-12T00:09:18.214Z,1000.99
2018-12-12T00:10:18.189Z,1001.01
2018-12-12T00:11:18.163Z,1001.02
2018-12-12T00:12:18.135Z,1000.97
2018-12-12T00:13:18.111Z,1000.94
2018-12-12T00:14:18.092Z,1000.95
2018-12-12T00:15:18.064Z,1000.99
2018-12-12T00:16:18.052Z,1000.97
2018-12-12T00:17:18.022Z,1001.01
2018-12-12T00:18:17.989Z,1001.01
2018-12-12T00:19:17.973Z,1001.07
2018-12-12T00:20:17.947Z,1001.02
2018-12-12T00:21:17.926Z,1001.00
2018-12-12T00:22:17.894Z,1001.02
2018-12-12T00:23:17.871Z,1001.00
2018-12-12T00:24:17.850Z,1001.00
2018-12-12T00:25:17.823Z,1001.00
2018-12-12T00:26:17.797Z,1000.95
2018-12-12T00:27:17.776Z,1000.95
2018-12-12T00:28:17.753Z,1000.97
2018-12-12T00:29:17.723Z,1000.90
2018-12-12T00:30:17.701Z,1000.94
2018-12-12T00:31:17.675Z,1000.91
2018-12-12T00:32:17.653Z,1000.89
2018-12-12T00:33:17.630Z,1000.92
2018-12-12T00:34:17.608Z,1000.90
2018-12-12T00:35:17.579Z,1000.93
2018-12-12T00:36:17.560Z,1000.90
2018-12-12T00:37:17.532Z,1000.90
2018-12-12T00:38:17.513Z,1000.89
2018-12-12T00:39:17.485Z,1000.90
2018-12-12T00:40:17.460Z,1000.90
2018-12-12T00:41:17.440Z,1000.92
2018-12-12T00:42:17.923Z,1000.90
2018-12-12T00:43:17.392Z,1000.92
2018-12-12T00:44:17.363Z,1000.89
2018-12-12T00:45:17.336Z,1000.88
2018-12-12T00:46:17.317Z,1000.91
2018-12-12T00:47:17.308Z,1000.90
2018-12-12T00:48:17.266Z,1000.87
2018-12-12T00:49:17.247Z,1000.89
2018-12-12T00:50:17.215Z,1000.91
2018-12-12T00:51:17.248Z,1000.87
2018-12-12T00:52:17.170Z,1000.86
2018-12-12T00:53:17.151Z,1000.89
2018-12-12T00:54:17.118Z,1000.86
2018-12-12T00:55:17.159Z,1000.84
2018-12-12T00:56:17.614Z,1000.88
2018-12-12T00:57:17.054Z,1000.87
2018-12-12T00:58:17.029Z,1000.85
2018-12-12T00:59:16.996Z,1000.83
2018-12-12T01:00:16.974Z,1000.82
2018-12-12T01:01:16.952Z,1000.86
2018-12-12T01:02:16.926Z,1000.84
2018-12-12T01:03:16.900Z,1000.87
2018-12-12T01:04:16.877Z,1000.92
2018-12-12T01:05:16.859Z,1000.92
2018-12-12T01:06:16.826Z,1000.91
2018-12-12T01:07:16.804Z,1000.93
2018-12-12T01:08:16.788Z,1000.96
2018-12-12T01:09:16.766Z,1000.94
2018-12-12T01:10:16.737Z,1000.95
2018-12-12T01:11:16.708Z,1000.93
2018-12-12T01:12:16.694Z,1000.90
2018-12-12T01:13:16.673Z,1000.90
2018-12-12T01:14:16.638Z,1000.91
2018-12-12T01:15:16.613Z,1000.88
2018-12-12T01:16:16.586Z,1000.92
2018-12-12T01:17:16.564Z,1000.91
2018-12-12T01:18:16.537Z,1000.97
2018-12-12T01:19:16.515Z,1000.96
2018-12-12T01:20:16.495Z,1000.97
2018-12-12T01:21:16.469Z,1000.98
2018-12-12T01:22:16.451Z,1000.96
2018-12-12T01:23:16.425Z,1000.99
2018-12-12T01:24:16.393Z,1000.99
2018-12-12T01:25:16.374Z,1000.98
2018-12-12T01:26:16.352Z,1000.93
2018-12-12T01:27:16.320Z,1001.00
2018-12-12T01:28:16.298Z,1000.97
2018-12-12T01:29:16.279Z,1001.02
2018-12-12T01:30:16.253Z,1001.04
2018-12-12T01:31:16.224Z,1001.03
2018-12-12T01:32:16.199Z,1001.02
2018-12-12T01:33:16.183Z,1001.04
2018-12-12T01:34:16.157Z,1001.04
2018-12-12T01:35:16.135Z,1000.99
2018-12-12T01:36:16.108Z,1001.00
2018-12-12T01:37:16.081Z,1001.00
2018-12-12T01:38:16.058Z,1001.06
2018-12-12T01:39:16.031Z,1001.03
2018-12-12T01:40:16.020Z,1001.02
2018-12-12T01:41:15.985Z,1001.02
2018-12-12T01:42:15.959Z,1001.02
2018-12-12T01:43:15.935Z,1001.03
2018-12-12T01:44:15.915Z,1001.00
2018-12-12T01:45:15.896Z,1001.02
2018-12-12T01:46:15.867Z,1000.99
2018-12-12T01:47:15.838Z,1000.98
2018-12-12T01:48:15.812Z,1000.93
2018-12-12T01:49:15.796Z,1000.95
2018-12-12T01:50:15.764Z,1000.95
2018-12-12T01:51:15.740Z,1000.98
2018-12-12T01:52:15.715Z,1000.95
2018-12-12T01:53:15.698Z,1000.96
2018-12-12T01:54:15.668Z,1000.92
2018-12-12T01:55:15.644Z,1000.95
2018-12-12T01:56:15.625Z,1000.88
2018-12-12T01:57:15.597Z,1000.88
2018-12-12T01:58:15.574Z,1000.89
2018-12-12T01:59:15.545Z,1000.85
2018-12-12T02:00:15.520Z,1000.85
2018-12-12T02:01:15.501Z,1000.86
2018-12-12T02:02:15.472Z,1000.88
2018-12-12T02:03:15.456Z,1000.88
2018-12-12T02:04:15.431Z,1000.87
2018-12-12T02:05:15.407Z,1000.89
2018-12-12T02:06:15.377Z,1000.89
2018-12-12T02:07:15.357Z,1000.91
2018-12-12T02:08:15.334Z,1000.91
2018-12-12T02:09:15.321Z,1000.93
2018-12-12T02:10:15.280Z,1000.94
2018-12-12T02:11:15.257Z,1000.91
2018-12-12T02:12:15.241Z,1000.92
2018-12-12T02:13:15.209Z,1000.91
2018-12-12T02:14:15.193Z,1000.91
2018-12-12T02:15:15.161Z,1000.95
2018-12-12T02:16:15.137Z,1000.95
2018-12-12T02:17:15.114Z,1000.93
2018-12-12T02:18:15.085Z,1000.96
2018-12-12T02:19:15.073Z,1000.98
2018-12-12T02:20:15.042Z,1001.01
2018-12-12T02:21:15.019Z,1001.01
2018-12-12T02:22:14.993Z,1001.05
2018-12-12T02:23:15.019Z,1001.04
2018-12-12T02:24:14.941Z,1001.07
2018-12-12T02:25:14.919Z,1001.04
2018-12-12T02:26:14.898Z,1001.04
2018-12-12T02:27:14.867Z,1001.08
2018-12-12T02:28:14.845Z,1001.08
2018-12-12T02:29:14.819Z,1001.04
2018-12-12T02:30:14.827Z,1001.06
2018-12-12T02:31:14.775Z,1001.05
2018-12-12T02:32:14.750Z,1001.06
2018-12-12T02:33:14.732Z,1001.07
2018-12-12T02:34:14.699Z,1001.03
2018-12-12T02:35:14.677Z,1001.03
2018-12-12T02:36:14.653Z,1001.05
2018-12-12T02:37:14.630Z,1000.99
2018-12-12T02:38:14.604Z,1000.98
2018-12-12T02:39:14.585Z,1000.98
2018-12-12T02:40:14.555Z,1000.97
2018-12-12T02:41:14.533Z,1000.91
2018-12-12T02:42:14.506Z,1000.95
2018-12-12T02:43:14.490Z,1000.96
2018-12-12T02:44:14.463Z,1000.93
2018-12-12T02:45:14.440Z,1000.94
2018-12-12T02:46:14.416Z,1000.92
2018-12-12T02:47:14.386Z,1000.93
2018-12-12T02:48:14.361Z,1000.89
2018-12-12T02:49:14.340Z,1000.91
2018-12-12T02:50:14.318Z,1000.89
2018-12-12T02:51:14.286Z,1000.92
2018-12-12T02:52:14.271Z,1000.90
2018-12-12T02:53:14.249Z,1000.91
2018-12-12T02:54:14.223Z,1000.97
2018-12-12T02:55:14.200Z,1000.96
2018-12-12T02:56:14.172Z,1000.92
2018-12-12T02:57:14.153Z,1000.96
2018-12-12T02:58:14.136Z,1000.93
2018-12-12T02:59:14.100Z,1000.91
2018-12-12T03:00:14.074Z,1000.90
2018-12-12T03:01:14.049Z,1000.93
2018-12-12T03:02:14.022Z,1000.93
2018-12-12T03:03:14.005Z,1000.97
2018-12-12T03:04:13.972Z,1000.98
2018-12-12T03:05:13.955Z,1001.01
2018-12-12T03:06:13.931Z,1001.01
2018-12-12T03:07:13.905Z,1001.02
2018-12-12T03:08:13.883Z,1001.02
2018-12-12T03:09:13.854Z,1001.02
2018-12-12T03:10:13.828Z,1001.06
2018-12-12T03:11:13.868Z,1001.03
2018-12-12T03:12:13.787Z,1001.04
2018-12-12T03:13:14.418Z,1001.02
2018-12-12T03:14:13.735Z,1001.03
2018-12-12T03:15:13.707Z,1001.01
2018-12-12T03:16:13.692Z,1001.00
2018-12-12T03:17:13.660Z,1001.01
2018-12-12T03:18:13.634Z,1001.02
2018-12-12T03:19:13.618Z,1001.01
2018-12-12T03:20:13.589Z,1001.04
2018-12-12T03:21:13.567Z,1001.03
2018-12-12T03:22:13.541Z,1001.02
2018-12-12T03:23:13.522Z,1001.00
2018-12-12T03:24:13.493Z,1001.03
2018-12-12T03:25:13.467Z,1001.06
2018-12-12T03:26:13.456Z,1001.02
2018-12-12T03:27:13.423Z,1001.04
2018-12-12T03:28:13.391Z,1001.05
2018-12-12T03:29:13.373Z,1001.03
2018-12-12T03:30:13.350Z,1001.00
2018-12-12T03:31:13.323Z,1001.03
2018-12-12T03:32:13.435Z,1000.97
2018-12-12T03:33:13.283Z,1000.96
2018-12-12T03:34:13.249Z,1000.95
2018-12-12T03:35:13.223Z,1000.97
2018-12-12T03:36:13.207Z,1000.93
2018-12-12T03:37:13.181Z,1000.93
2018-12-12T03:38:13.155Z,1000.90
2018-12-12T03:39:13.127Z,1000.87
2018-12-12T03:40:13.107Z,1000.89
2018-12-12T03:41:13.086Z,1000.91
2018-12-12T03:42:13.053Z,1000.90
2018-12-12T03:43:13.040Z,1000.87
2018-12-12T03:44:13.018Z,1000.89
2018-12-12T03:45:12.982Z,1000.92
2018-12-12T03:46:12.964Z,1000.91
2018-12-12T03:47:12.934Z,1000.95
2018-12-12T03:48:12.910Z,1000.91
2018-12-12T03:49:12.977Z,1000.99
2018-12-12T03:50:12.861Z,1001.02
2018-12-12T03:51:12.836Z,1001.01
2018-12-12T03:52:12.818Z,1001.02
2018-12-12T03:53:12.800Z,1001.03
2018-12-12T03:54:12.768Z,1001.02
2018-12-12T03:55:12.741Z,1001.03
2018-12-12T03:56:12.722Z,1001.07
2018-12-12T03:57:12.693Z,1001.05
2018-12-12T03:58:12.668Z,1001.08
2018-12-12T03:59:12.654Z,1001.10
2018-12-12T04:00:12.625Z,1001.08
2018-12-12T04:01:12.597Z,1001.09
2018-12-12T04:02:12.578Z,1001.15
2018-12-12T04:03:12.552Z,1001.14
2018-12-12T04:04:12.532Z,1001.14
2018-12-12T04:05:12.500Z,1001.14
2018-12-12T04:06:12.484Z,1001.16
2018-12-12T04:07:12.464Z,1001.13
2018-12-12T04:08:12.427Z,1001.15
2018-12-12T04:09:12.406Z,1001.14
2018-12-12T04:10:12.381Z,1001.14
2018-12-12T04:11:12.359Z,1001.16
2018-12-12T04:12:12.332Z,1001.16
2018-12-12T04:13:12.306Z,1001.18
2018-12-12T04:14:12.280Z,1001.14
2018-12-12T04:15:12.262Z,1001.16
2018-12-12T04:16:12.233Z,1001.14
2018-12-12T04:17:12.340Z,1001.14
2018-12-12T04:18:12.182Z,1001.13
2018-12-12T04:19:12.164Z,1001.14
2018-12-12T04:20:12.133Z,1001.20
2018-12-12T04:21:12.115Z,1001.15
2018-12-12T04:22:12.087Z,1001.13
2018-12-12T04:23:12.067Z,1001.17
2018-12-12T04:24:12.037Z,1001.17
2018-12-12T04:25:12.022Z,1001.17
2018-12-12T04:26:12.023Z,1001.17
2018-12-12T04:27:11.967Z,1001.20
2018-12-12T04:28:11.941Z,1001.20
2018-12-12T04:29:11.915Z,1001.19
2018-12-12T04:30:11.894Z,1001.20
2018-12-12T04:31:11.867Z,1001.19
2018-12-12T04:32:11.884Z,1001.23
2018-12-12T04:33:11.819Z,1001.26
2018-12-12T04:34:11.800Z,1001.28
2018-12-12T04:35:11.772Z,1001.27
2018-12-12T04:36:11.752Z,1001.26
2018-12-12T04:37:11.722Z,1001.25
2018-12-12T04:38:11.711Z,1001.23
2018-12-12T04:39:11.677Z,1001.25
2018-12-12T04:40:11.652Z,1001.19
2018-12-12T04:41:11.625Z,1001.23
2018-12-12T04:42:11.609Z,1001.25
2018-12-12T04:43:11.578Z,1001.25
2018-12-12T04:44:11.571Z,1001.26
2018-12-12T04:45:11.537Z,1001.24
2018-12-12T04:46:11.517Z,1001.24
2018-12-12T04:47:11.484Z,1001.24
2018-12-12T04:48:11.459Z,1001.24
2018-12-12T04:49:11.440Z,1001.27
2018-12-12T04:50:11.411Z,1001.28
2018-12-12T04:51:11.383Z,1001.29
2018-12-12T04:52:11.367Z,1001.26
2018-12-12T04:53:11.342Z,1001.26
2018-12-12T04:54:11.335Z,1001.22
2018-12-12T04:55:11.288Z,1001.25
2018-12-12T04:56:11.269Z,1001.28
2018-12-12T04:57:11.245Z,1001.26
2018-12-12T04:58:11.218Z,1001.25
2018-12-12T04:59:11.195Z,1001.25
2018-12-12T05:00:11.166Z,1001.27
2018-12-12T05:01:11.150Z,1001.25
2018-12-12T05:02:11.122Z,1001.20
2018-12-12T05:03:11.099Z,1001.21
2018-12-12T05:04:11.077Z,1001.22
2018-12-12T05:05:11.051Z,1001.21
2018-12-12T05:06:11.026Z,1001.24
2018-12-12T05:07:11.001Z,1001.24
2018-12-12T05:08:10.978Z,1001.25
2018-12-12T05:09:10.953Z,1001.24
2018-12-12T05:10:10.925Z,1001.27
2018-12-12T05:11:10.902Z,1001.24
2018-12-12T05:12:10.877Z,1001.21
2018-12-12T05:13:10.851Z,1001.23
2018-12-12T05:14:10.835Z,1001.26
2018-12-12T05:15:10.806Z,1001.22
2018-12-12T05:16:10.780Z,1001.18
2018-12-12T05:17:10.755Z,1001.20
2018-12-12T05:18:10.733Z,1001.17
2018-12-12T05:19:10.708Z,1001.18
2018-12-12T05:20:10.691Z,1001.19
2018-12-12T05:21:10.663Z,1001.16
2018-12-12T05:22:10.641Z,1001.17
2018-12-12T05:23:10.611Z,1001.16
2018-12-12T05:24:10.586Z,1001.17
2018-12-12T05:25:10.564Z,1001.14
2018-12-12T05:26:10.541Z,1001.15
2018-12-12T05:27:10.514Z,1001.12
2018-12-12T05:28:10.486Z,1001.14
2018-12-12T05:29:10.467Z,1001.17
2018-12-12T05:30:10.441Z,1001.16
2018-12-12T05:31:10.415Z,1001.13
2018-12-12T05:32:10.391Z,1001.14
2018-12-12T05:33:10.374Z,1001.20
2018-12-12T05:34:10.354Z,1001.19
2018-12-12T05:35:10.321Z,1001.14
2018-12-12T05:36:10.298Z,1001.16
2018-12-12T05:37:10.270Z,1001.16
2018-12-12T05:38:10.254Z,1001.18
2018-12-12T05:39:10.222Z,1001.21
2018-12-12T05:40:10.206Z,1001.18
2018-12-12T05:41:10.180Z,1001.16
2018-12-12T05:42:10.155Z,1001.18
2018-12-12T05:43:10.125Z,1001.19
2018-12-12T05:44:10.106Z,1001.17
2018-12-12T05:45:10.074Z,1001.22
2018-12-12T05:46:10.057Z,1001.28
2018-12-12T05:47:10.029Z,1001.20
2018-12-12T05:48:10.011Z,1001.24
2018-12-12T05:49:09.984Z,1001.23
2018-12-12T05:50:09.962Z,1001.21
2018-12-12T05:51:09.929Z,1001.24
2018-12-12T05:52:09.913Z,1001.29
2018-12-12T05:53:09.881Z,1001.27
2018-12-12T05:54:09.856Z,1001.27
2018-12-12T05:55:09.833Z,1001.30
2018-12-12T05:56:14.161Z,1001.29
2018-12-12T05:57:09.785Z,1001.31
2018-12-12T05:58:09.759Z,1001.30
2018-12-12T05:59:09.734Z,1001.32
2018-12-12T06:00:09.714Z,1001.31
2018-12-12T06:01:09.692Z,1001.35
2018-12-12T06:02:09.667Z,1001.33
2018-12-12T06:03:09.638Z,1001.35
2018-12-12T06:04:09.631Z,1001.29
2018-12-12T06:05:09.598Z,1001.32
2018-12-12T06:06:09.568Z,1001.38
2018-12-12T06:07:09.617Z,1001.40
2018-12-12T06:08:09.561Z,1001.41
2018-12-12T06:09:09.492Z,1001.42
2018-12-12T06:10:09.478Z,1001.40
2018-12-12T06:11:09.449Z,1001.44
2018-12-12T06:12:09.430Z,1001.45
2018-12-12T06:13:09.407Z,1001.41
2018-12-12T06:14:09.375Z,1001.42
2018-12-12T06:15:09.347Z,1001.45
2018-12-12T06:16:09.327Z,1001.49
2018-12-12T06:17:09.297Z,1001.48
2018-12-12T06:18:09.287Z,1001.48
2018-12-12T06:19:09.246Z,1001.53
2018-12-12T06:20:09.226Z,1001.50
2018-12-12T06:21:09.202Z,1001.53
2018-12-12T06:22:09.173Z,1001.48
2018-12-12T06:23:09.157Z,1001.50
2018-12-12T06:24:09.132Z,1001.51
2018-12-12T06:25:09.107Z,1001.48
2018-12-12T06:26:09.077Z,1001.50
2018-12-12T06:27:09.074Z,1001.46
2018-12-12T06:28:09.036Z,1001.46
2018-12-12T06:29:09.010Z,1001.45
2018-12-12T06:30:08.987Z,1001.47
2018-12-12T06:31:08.978Z,1001.44
2018-12-12T06:32:08.937Z,1001.44
2018-12-12T06:33:08.908Z,1001.42
2018-12-12T06:34:08.883Z,1001.48
2018-12-12T06:35:08.863Z,1001.48
2018-12-12T06:36:08.855Z,1001.48
2018-12-12T06:37:08.817Z,1001.48
2018-12-12T06:38:08.789Z,1001.52
2018-12-12T06:39:08.764Z,1001.53
2018-12-12T06:40:08.735Z,1001.52
2018-12-12T06:41:08.716Z,1001.54
2018-12-12T06:42:08.707Z,1001.52
2018-12-12T06:43:08.671Z,1001.51
2018-12-12T06:44:08.639Z,1001.52
2018-12-12T06:45:08.620Z,1001.50
2018-12-12T06:46:08.598Z,1001.51
2018-12-12T06:47:08.572Z,1001.51
2018-12-12T06:48:08.541Z,1001.49
2018-12-12T06:49:08.535Z,1001.51
2018-12-12T06:50:08.494Z,1001.49
2018-12-12T06:51:08.490Z,1001.50
2018-12-12T06:52:08.448Z,1001.50
2018-12-12T06:53:08.423Z,1001.50
2018-12-12T06:54:08.400Z,1001.50
2018-12-12T06:55:08.374Z,1001.46
2018-12-12T06:56:08.349Z,1001.47
2018-12-12T06:57:08.337Z,1001.44
2018-12-12T06:58:08.305Z,1001.45
2018-12-12T06:59:08.273Z,1001.43
2018-12-12T07:00:08.264Z,1001.47
2018-12-12T07:01:08.242Z,1001.45
2018-12-12T07:02:08.200Z,1001.43
2018-12-12T07:03:08.177Z,1001.43
2018-12-12T07:04:08.216Z,1001.45
2018-12-12T07:05:08.132Z,1001.46
2018-12-12T07:06:08.106Z,1001.48
2018-12-12T07:07:08.083Z,1001.47
2018-12-12T07:08:08.054Z,1001.51
2018-12-12T07:09:08.033Z,1001.49
2018-12-12T07:10:08.026Z,1001.54
2018-12-12T07:11:07.984Z,1001.50
2018-12-12T07:12:07.963Z,1001.53
2018-12-12T07:13:07.952Z,1001.54
2018-12-12T07:14:07.931Z,1001.53
2018-12-12T07:15:08.160Z,1001.55
2018-12-12T07:16:07.864Z,1001.52
2018-12-12T07:17:07.838Z,1001.54
2018-12-12T07:18:07.817Z,1001.55
2018-12-12T07:19:07.787Z,1001.55
2018-12-12T07:20:07.781Z,1001.56
2018-12-12T07:21:07.743Z,1001.57
2018-12-12T07:22:07.743Z,1001.60
2018-12-12T07:23:07.694Z,1001.59
2018-12-12T07:24:07.675Z,1001.59
2018-12-12T07:25:07.639Z,1001.62
2018-12-12T07:26:07.620Z,1001.58
2018-12-12T07:27:07.591Z,1001.60
2018-12-12T07:28:07.562Z,1001.63
2018-12-12T07:29:07.547Z,1001.64
2018-12-12T07:30:07.524Z,1001.66
2018-12-12T07:31:07.497Z,1001.65
2018-12-12T07:32:07.469Z,1001.69
2018-12-12T07:33:07.450Z,1001.67
2018-12-12T07:34:07.423Z,1001.68
2018-12-12T07:35:07.412Z,1001.65
2018-12-12T07:36:07.431Z,1001.65
2018-12-12T07:37:07.360Z,1001.66
2018-12-12T07:38:07.389Z,1001.65
2018-12-12T07:39:07.335Z,1001.67
2018-12-12T07:40:07.305Z,1001.67
2018-12-12T07:41:07.255Z,1001.70
2018-12-12T07:42:07.238Z,1001.65
2018-12-12T07:43:07.206Z,1001.67
2018-12-12T07:44:07.194Z,1001.62
2018-12-12T07:45:07.155Z,1001.65
2018-12-12T07:46:07.192Z,1001.66
2018-12-12T07:47:07.113Z,1001.67
2018-12-12T07:48:07.082Z,1001.64
2018-12-12T07:49:07.069Z,1001.66
2018-12-12T07:50:07.039Z,1001.63
2018-12-12T07:51:07.012Z,1001.62
2018-12-12T07:52:06.989Z,1001.63
2018-12-12T07:53:06.966Z,1001.67
2018-12-12T07:54:06.957Z,1001.65
2018-12-12T07:55:06.916Z,1001.64
2018-12-12T07:56:06.888Z,1001.64
2018-12-12T07:57:06.885Z,1001.63
2018-12-12T07:58:06.846Z,1001.63
2018-12-12T07:59:06.833Z,1001.60
2018-12-12T08:00:06.798Z,1001.63
2018-12-12T08:01:06.785Z,1001.62
2018-12-12T08:02:06.750Z,1001.66
2018-12-12T08:03:06.723Z,1001.65
2018-12-12T08:04:06.706Z,1001.66
2018-12-12T08:05:06.681Z,1001.69
2018-12-12T08:06:06.652Z,1001.65
2018-12-12T08:07:06.628Z,1001.66
2018-12-12T08:08:06.614Z,1001.66
2018-12-12T08:09:06.581Z,1001.66
2018-12-12T08:10:06.556Z,1001.66
2018-12-12T08:11:06.554Z,1001.71
2018-12-12T08:12:06.505Z,1001.67
2018-12-12T08:13:06.489Z,1001.67
2018-12-12T08:14:06.451Z,1001.66
2018-12-12T08:15:06.453Z,1001.68
2018-12-12T08:16:06.409Z,1001.68
2018-12-12T08:17:06.387Z,1001.71
2018-12-12T08:18:06.371Z,1001.70
2018-12-12T08:19:06.339Z,1001.70
2018-12-12T08:20:06.304Z,1001.70
2018-12-12T08:21:06.291Z,1001.72
2018-12-12T08:22:06.387Z,1001.72
2018-12-12T08:23:06.256Z,1001.75
2018-12-12T08:24:06.221Z,1001.68
2018-12-12T08:25:06.201Z,1001.73
2018-12-12T08:26:06.169Z,1001.73
2018-12-12T08:27:06.147Z,1001.75
2018-12-12T08:28:06.113Z,1001.73
2018-12-12T08:29:06.130Z,1001.72
2018-12-12T08:30:06.094Z,1001.75
2018-12-12T08:31:06.046Z,1001.79
2018-12-12T08:32:06.119Z,1001.78
2018-12-12T08:33:11.087Z,1001.82
2018-12-12T08:34:05.966Z,1001.76
2018-12-12T08:35:05.949Z,1001.86
2018-12-12T08:36:05.923Z,1001.81
2018-12-12T08:37:05.903Z,1001.84
2018-12-12T08:38:05.877Z,1001.84
2018-12-12T08:39:05.848Z,1001.86
2018-12-12T08:40:05.824Z,1001.82
2018-12-12T08:41:05.797Z,1001.80
2018-12-12T08:42:05.782Z,1001.82
2018-12-12T08:43:05.748Z,1001.83
2018-12-12T08:44:05.773Z,1001.86
2018-12-12T08:45:05.716Z,1001.84
2018-12-12T08:46:05.687Z,1001.86
2018-12-12T08:47:05.662Z,1001.85
2018-12-12T08:48:05.635Z,1001.92
2018-12-12T08:49:05.639Z,1001.90
2018-12-12T08:50:05.585Z,1001.88
2018-12-12T08:51:05.652Z,1001.91
2018-12-12T08:52:05.539Z,1001.89
2018-12-12T08:53:05.516Z,1001.90
2018-12-12T08:54:05.497Z,1001.93
2018-12-12T08:55:05.483Z,1001.95
2018-12-12T08:56:05.440Z,1001.92
2018-12-12T08:57:05.420Z,1001.89
2018-12-12T08:58:05.391Z,1001.93
2018-12-12T08:59:05.366Z,1001.95
2018-12-12T09:00:05.352Z,1001.92
2018-12-12T09:01:05.323Z,1001.94
2018-12-12T09:02:05.544Z,1001.97
2018-12-12T09:03:05.302Z,1001.98
2018-12-12T09:04:05.250Z,1001.95
2018-12-12T09:05:05.231Z,1001.92
2018-12-12T09:06:05.198Z,1001.93
2018-12-12T09:07:05.189Z,1001.91
2018-12-12T09:08:05.171Z,1001.94
2018-12-12T09:09:05.225Z,1001.95
2018-12-12T09:10:05.117Z,1002.00
2018-12-12T09:11:05.081Z,1001.98
2018-12-12T09:12:05.055Z,1002.01
2018-12-12T09:13:05.044Z,1001.98
2018-12-12T09:14:05.005Z,1001.97
2018-12-12T09:15:04.999Z,1001.95
2018-12-12T09:16:04.971Z,1001.98
2018-12-12T09:17:09.642Z,1001.95
2018-12-12T09:18:04.955Z,1001.97
2018-12-12T09:19:04.903Z,1001.94
2018-12-12T09:20:04.898Z,1001.93
2018-12-12T09:21:04.845Z,1001.94
2018-12-12T09:22:04.839Z,1001.90
2018-12-12T09:23:04.794Z,1001.93
2018-12-12T09:24:04.769Z,1001.94
2018-12-12T09:25:04.753Z,1001.97
2018-12-12T09:26:04.724Z,1001.95
2018-12-12T09:27:04.706Z,1001.93
2018-12-12T09:28:04.685Z,1001.97
2018-12-12T09:29:04.656Z,1001.94
2018-12-12T09:30:04.679Z,1001.99
2018-12-12T09:31:04.612Z,1002.01
2018-12-12T09:32:04.605Z,1002.04
2018-12-12T09:33:04.561Z,1002.05
2018-12-12T09:34:04.537Z,1002.07
2018-12-12T09:35:04.513Z,1002.06
2018-12-12T09:36:04.508Z,1002.05
2018-12-12T09:37:04.473Z,1002.05
2018-12-12T09:38:04.450Z,1002.03
2018-12-12T09:39:04.421Z,1002.04
2018-12-12T09:40:04.396Z,1002.02
2018-12-12T09:41:04.366Z,1002.02
2018-12-12T09:42:04.384Z,1002.03
2018-12-12T09:43:04.326Z,1002.04
2018-12-12T09:44:04.313Z,1002.07
2018-12-12T09:45:05.224Z,1002.04
2018-12-12T09:46:04.275Z,1002.08
2018-12-12T09:47:04.233Z,1002.07
2018-12-12T09:48:04.213Z,1002.08
2018-12-12T09:49:04.189Z,1002.11
2018-12-12T09:50:04.163Z,1002.13
2018-12-12T09:51:07.279Z,1002.08
2018-12-12T09:52:04.141Z,1002.06
2018-12-12T09:53:04.095Z,1002.06
2018-12-12T09:54:04.083Z,1002.07
2018-12-12T09:55:04.112Z,1002.08
2018-12-12T09:56:04.026Z,1002.06
2018-12-12T09:57:04.022Z,1002.02
2018-12-12T09:58:03.985Z,1002.02
2018-12-12T09:59:03.960Z,1002.08
2018-12-12T10:00:03.933Z,1002.06
2018-12-12T10:01:03.917Z,1002.04
2018-12-12T10:02:03.898Z,1002.06
2018-12-12T10:03:03.901Z,1002.06
2018-12-12T10:04:03.840Z,1002.06
2018-12-12T10:05:03.821Z,1002.05
2018-12-12T10:06:03.790Z,1002.08
2018-12-12T10:07:03.773Z,1002.09
2018-12-12T10:08:03.757Z,1002.10
2018-12-12T10:09:03.729Z,1002.10
2018-12-12T10:10:03.698Z,1002.07
2018-12-12T10:11:03.684Z,1002.12
2018-12-12T10:12:03.659Z,1002.09
2018-12-12T10:13:03.637Z,1002.10
2018-12-12T10:14:03.621Z,1002.08
2018-12-12T10:15:03.639Z,1002.11
2018-12-12T10:16:03.580Z,1002.06
2018-12-12T10:17:03.544Z,1002.09
2018-12-12T10:18:03.519Z,1002.11
2018-12-12T10:19:03.502Z,1002.09
2018-12-12T10:20:03.475Z,1002.10
2018-12-12T10:21:03.453Z,1002.10
2018-12-12T10:22:03.420Z,1002.08
2018-12-12T10:23:03.420Z,1002.08
2018-12-12T10:24:03.397Z,1002.09
2018-12-12T10:25:03.417Z,1002.07
2018-12-12T10:26:03.329Z,1002.03
2018-12-12T10:27:03.323Z,1002.02
2018-12-12T10:28:03.278Z,1002.04
2018-12-12T10:29:03.282Z,1002.01
2018-12-12T10:30:03.243Z,1002.02
2018-12-12T10:31:03.223Z,1002.04
2018-12-12T10:32:03.202Z,1002.02
2018-12-12T10:33:03.179Z,1002.08
2018-12-12T10:34:03.163Z,1002.07
2018-12-12T10:35:03.122Z,1002.05
2018-12-12T10:36:03.097Z,1002.04
2018-12-12T10:37:03.116Z,1002.02
2018-12-12T10:38:03.045Z,1002.04
2018-12-12T10:39:03.027Z,1002.05
2018-12-12T10:40:03.007Z,1002.02
2018-12-12T10:41:02.988Z,1001.98
2018-12-12T10:42:02.965Z,1001.99
2018-12-12T10:43:02.946Z,1001.98
2018-12-12T10:44:02.920Z,1002.00
2018-12-12T10:45:02.947Z,1001.96
2018-12-12T10:46:02.878Z,1001.98
2018-12-12T10:47:02.853Z,1001.97
2018-12-12T10:48:02.836Z,1001.96
2018-12-12T10:49:02.814Z,1002.00
2018-12-12T10:50:02.802Z,1002.01
2018-12-12T10:51:02.757Z,1001.95
2018-12-12T10:52:02.741Z,1001.97
2018-12-12T10:53:02.737Z,1001.96
2018-12-12T10:54:02.709Z,1001.97
2018-12-12T10:55:02.663Z,1001.94
2018-12-12T10:56:02.655Z,1001.95
2018-12-12T10:57:02.625Z,1001.93
2018-12-12T10:58:02.607Z,1001.93
2018-12-12T10:59:02.593Z,1001.90
2018-12-12T11:00:02.564Z,1001.95
2018-12-12T11:01:02.538Z,1001.89
2018-12-12T11:02:02.519Z,1001.91
2018-12-12T11:03:02.525Z,1001.91
2018-12-12T11:04:02.505Z,1001.87
2018-12-12T11:05:02.475Z,1001.83
2018-12-12T11:06:02.410Z,1001.83
2018-12-12T11:07:02.398Z,1001.84
2018-12-12T11:08:02.398Z,1001.84
2018-12-12T11:09:02.353Z,1001.82
2018-12-12T11:10:02.328Z,1001.82
2018-12-12T11:11:02.309Z,1001.81
2018-12-12T11:12:02.297Z,1001.79
2018-12-12T11:13:02.284Z,1001.78
2018-12-12T11:14:02.244Z,1001.80
2018-12-12T11:15:02.221Z,1001.77
2018-12-12T11:16:02.208Z,1001.73
2018-12-12T11:17:02.167Z,1001.78
2018-12-12T11:18:02.154Z,1001.76
2018-12-12T11:19:02.158Z,1001.70
2018-12-12T11:20:02.110Z,1001.66
2018-12-12T11:21:02.105Z,1001.67
2018-12-12T11:22:02.048Z,1001.66
2018-12-12T11:23:02.026Z,1001.66
2018-12-12T11:24:02.009Z,1001.66
2018-12-12T11:25:01.986Z,1001.63
2018-12-12T11:26:01.980Z,1001.63
2018-12-12T11:27:01.941Z,1001.61
2018-12-12T11:28:01.923Z,1001.61
2018-12-12T11:29:01.891Z,1001.61
2018-12-12T11:30:01.878Z,1001.60
2018-12-12T11:31:01.846Z,1001.63
2018-12-12T11:32:01.828Z,1001.62
2018-12-12T11:33:01.808Z,1001.61
2018-12-12T11:34:01.779Z,1001.57
2018-12-12T11:35:01.760Z,1001.59
2018-12-12T11:36:01.754Z,1001.57
2018-12-12T11:37:01.729Z,1001.57
2018-12-12T11:38:01.692Z,1001.55
2018-12-12T11:39:01.668Z,1001.60
2018-12-12T11:40:01.666Z,1001.54
2018-12-12T11:41:01.687Z,1001.54
2018-12-12T11:42:01.610Z,1001.54
2018-12-12T11:43:01.594Z,1001.52
2018-12-12T11:44:01.578Z,1001.51
2018-12-12T11:45:01.552Z,1001.51
2018-12-12T11:46:01.511Z,1001.47
2018-12-12T11:47:01.485Z,1001.50
2018-12-12T11:48:01.462Z,1001.47
2018-12-12T11:49:01.447Z,1001.47
2018-12-12T11:50:01.435Z,1001.46
2018-12-12T11:51:01.398Z,1001.50
2018-12-12T11:52:01.379Z,1001.48
2018-12-12T11:53:01.398Z,1001.48
2018-12-12T11:54:01.336Z,1001.52
2018-12-12T11:55:01.336Z,1001.45
2018-12-12T11:56:01.311Z,1001.43
2018-12-12T11:57:01.266Z,1001.45
2018-12-12T11:58:01.253Z,1001.42
2018-12-12T11:59:01.224Z,1001.42
2018-12-12T12:00:01.201Z,1001.38
2018-12-12T12:01:01.180Z,1001.38
2018-12-12T12:02:01.151Z,1001.37
2018-12-12T12:03:01.127Z,1001.36
2018-12-12T12:04:01.107Z,1001.36
2018-12-12T12:05:01.089Z,1001.33